createdAt,value
2023-02-15T00:02:04.788Z,19.75
2023-02-15T00:04:46.448Z,21.13
2023-02-15T00:07:18.115Z,17.95
2023-02-15T00:09:49.633Z,16.98
2023-02-15T00:12:19.805Z,17.50
2023-02-15T00:14:47.539Z,16.45
2023-02-15T00:17:15.307Z,17.33
2023-02-15T00:19:43.052Z,18.52
2023-02-15T00:22:11.002Z,17.50
2023-02-15T00:24:40.125Z,17.73
2023-02-15T00:27:07.912Z,18.85
2023-02-15T00:29:35.716Z,20.10
2023-02-15T00:32:03.595Z,19.80
2023-02-15T00:34:31.357Z,18.95
2023-02-15T00:36:59.227Z,18.48
2023-02-15T00:39:28.228Z,19.30
2023-02-15T00:41:57.354Z,18.92
2023-02-15T00:44:25.170Z,19.85
2023-02-15T00:46:52.929Z,18.80
2023-02-15T00:49:20.741Z,19.08
2023-02-15T00:51:48.535Z,20.13
2023-02-15T00:54:16.392Z,21.85
2023-02-15T00:56:44.166Z,21.27
2023-02-15T00:59:13.385Z,20.70
2023-02-15T01:01:41.205Z,21.00
2023-02-15T01:04:09.067Z,19.67
2023-02-15T01:06:37.160Z,19.55
2023-02-15T01:09:05.276Z,21.80
2023-02-15T01:11:33.092Z,22.65
2023-02-15T01:14:01.186Z,20.60
2023-02-15T01:16:32.259Z,22.67
2023-02-15T01:19:00.015Z,21.65
2023-02-15T01:21:28.438Z,20.70
2023-02-15T01:23:56.217Z,21.23
2023-02-15T01:26:24.279Z,18.65
2023-02-15T01:28:52.018Z,19.65
2023-02-15T01:31:21.713Z,21.58
2023-02-15T01:33:51.479Z,19.73
2023-02-15T01:36:19.222Z,20.42
2023-02-15T01:38:47.307Z,19.38
2023-02-15T01:41:28.093Z,20.23
2023-02-15T01:43:57.369Z,20.65
2023-02-15T01:46:32.948Z,24.50
2023-02-15T01:49:09.052Z,25.60
2023-02-15T01:51:40.428Z,28.35
2023-02-15T01:54:15.730Z,27.13
2023-02-15T01:56:44.056Z,29.90
2023-02-15T01:59:15.556Z,30.65
2023-02-15T02:01:46.639Z,30.13
2023-02-15T02:04:20.822Z,31.05
2023-02-15T02:06:50.921Z,33.03
2023-02-15T02:09:18.752Z,34.00
2023-02-15T02:11:49.729Z,33.35
2023-02-15T02:14:18.680Z,33.25
2023-02-15T02:16:54.375Z,33.95
2023-02-15T02:19:56.412Z,35.35
2023-02-15T02:22:47.429Z,35.85
2023-02-15T02:25:33.094Z,35.20
2023-02-15T02:28:18.630Z,32.45
2023-02-15T02:31:04.879Z,34.28
2023-02-15T02:33:56.301Z,36.15
2023-02-15T02:36:30.947Z,33.20
2023-02-15T02:39:14.858Z,33.80
2023-02-15T02:41:52.784Z,35.33
2023-02-15T02:44:25.659Z,35.63
2023-02-15T02:46:56.814Z,33.97
2023-02-15T02:49:37.348Z,35.75
2023-02-15T02:52:08.802Z,35.10
2023-02-15T02:54:38.024Z,33.90
2023-02-15T02:57:10.848Z,34.17
2023-02-15T02:59:43.697Z,35.33
2023-02-15T03:02:15.694Z,32.10
2023-02-15T03:04:50.385Z,33.38
2023-02-15T03:07:23.210Z,35.20
2023-02-15T03:09:53.506Z,33.10
2023-02-15T03:12:24.240Z,35.50
2023-02-15T03:14:55.283Z,36.13
2023-02-15T03:17:25.622Z,37.08
2023-02-15T03:19:59.690Z,36.42
2023-02-15T03:22:31.131Z,37.25
2023-02-15T03:25:01.818Z,35.65
2023-02-15T03:27:35.564Z,35.88
2023-02-15T03:32:34.441Z,35.35
2023-02-15T03:35:04.227Z,36.85
2023-02-15T03:37:37.588Z,35.15
2023-02-15T03:40:25.841Z,37.00
2023-02-15T03:43:04.550Z,36.85
2023-02-15T03:45:35.290Z,35.85
2023-02-15T03:48:05.160Z,36.20
2023-02-15T03:50:55.840Z,38.28
2023-02-15T03:53:25.532Z,51.17
2023-02-15T03:55:56.778Z,39.55
2023-02-15T03:58:41.960Z,35.03
2023-02-15T04:01:38.064Z,35.88
2023-02-15T04:04:12.649Z,36.72
2023-02-15T04:06:41.752Z,34.60
2023-02-15T04:09:26.792Z,36.47
2023-02-15T04:11:54.562Z,33.95
2023-02-15T04:14:39.599Z,34.92
2023-02-15T04:17:07.831Z,34.50
2023-02-15T04:19:53.438Z,35.95
2023-02-15T04:22:40.117Z,35.90
2023-02-15T04:25:13.967Z,35.63
2023-02-15T04:27:43.457Z,35.88
2023-02-15T04:30:13.770Z,35.38
2023-02-15T04:32:41.936Z,35.13
2023-02-15T04:35:10.767Z,37.80
2023-02-15T04:37:40.768Z,34.78
2023-02-15T04:40:09.981Z,35.35
2023-02-15T04:42:37.801Z,35.33
2023-02-15T04:45:06.535Z,35.80
2023-02-15T04:47:34.382Z,32.10
2023-02-15T04:50:02.164Z,35.47
2023-02-15T04:52:29.932Z,35.50
2023-02-15T04:54:59.111Z,34.47
2023-02-15T04:57:26.900Z,34.70
2023-02-15T04:59:54.663Z,33.75
2023-02-15T05:02:22.412Z,33.28
2023-02-15T05:04:50.135Z,33.30
2023-02-15T05:07:18.616Z,33.15
2023-02-15T05:09:46.396Z,34.00
2023-02-15T05:12:15.505Z,35.03
2023-02-15T05:14:43.314Z,33.28
2023-02-15T05:17:11.033Z,31.63
2023-02-15T05:19:38.816Z,30.63
2023-02-15T05:22:06.624Z,31.42
2023-02-15T05:24:51.654Z,31.38
2023-02-15T05:27:38.627Z,30.50
2023-02-15T05:30:12.508Z,30.38
2023-02-15T05:32:40.804Z,31.92
2023-02-15T05:35:09.543Z,30.17
2023-02-15T05:37:37.330Z,30.85
2023-02-15T05:40:05.423Z,31.83
2023-02-15T05:42:34.784Z,30.70
2023-02-15T05:45:04.720Z,30.52
2023-02-15T05:47:32.488Z,30.05
2023-02-15T05:50:01.462Z,30.15
2023-02-15T05:52:29.178Z,29.05
2023-02-15T05:54:56.875Z,30.45
2023-02-15T05:57:24.706Z,30.70
2023-02-15T05:59:53.828Z,31.35
2023-02-15T06:02:21.665Z,28.60
2023-02-15T06:04:49.535Z,29.48
2023-02-15T06:07:17.242Z,28.75
2023-02-15T06:09:45.028Z,29.20
2023-02-15T06:12:15.629Z,29.65
2023-02-15T06:14:43.430Z,29.95
2023-02-15T06:17:12.551Z,31.13
2023-02-15T06:19:40.283Z,29.77
2023-02-15T06:22:08.379Z,30.10
2023-02-15T06:24:36.172Z,33.05
2023-02-15T06:27:03.896Z,32.85
2023-02-15T06:29:31.649Z,35.40
2023-02-15T06:31:59.492Z,35.13
2023-02-15T06:34:28.860Z,35.92
2023-02-15T06:36:56.627Z,33.15
2023-02-15T06:39:24.326Z,36.83
2023-02-15T06:41:52.175Z,35.75
2023-02-15T06:44:19.888Z,35.10
2023-02-15T06:46:47.776Z,33.75
2023-02-15T06:49:15.539Z,35.53
2023-02-15T06:51:44.766Z,35.53
2023-02-15T06:54:12.673Z,36.10
2023-02-15T06:56:40.463Z,35.55
2023-02-15T06:59:08.218Z,35.10
2023-02-15T07:01:37.937Z,33.72
2023-02-15T07:04:06.258Z,33.17
2023-02-15T07:06:34.933Z,32.15
2023-02-15T07:09:04.144Z,32.90
2023-02-15T07:11:50.443Z,33.10
2023-02-15T07:14:18.187Z,32.70
2023-02-15T07:16:45.959Z,33.63
2023-02-15T07:19:16.650Z,34.28
2023-02-15T07:21:44.995Z,33.75
2023-02-15T07:24:14.168Z,36.25
2023-02-15T07:26:41.875Z,37.28
2023-02-15T07:29:10.033Z,38.17
2023-02-15T07:31:37.778Z,33.65
2023-02-15T07:34:07.350Z,36.35
2023-02-15T07:36:35.114Z,34.65
2023-02-15T07:39:02.882Z,37.72
2023-02-15T07:41:32.031Z,35.72
2023-02-15T07:43:59.789Z,36.08
2023-02-15T07:46:27.561Z,34.72
2023-02-15T07:48:55.546Z,35.67
2023-02-15T07:51:23.475Z,34.03
2023-02-15T07:53:52.511Z,36.60
2023-02-15T07:56:20.332Z,36.55
2023-02-15T07:58:56.761Z,37.15
2023-02-15T08:01:26.534Z,37.75
2023-02-15T08:03:55.420Z,34.78
2023-02-15T08:06:24.722Z,33.65
2023-02-15T08:08:52.571Z,34.72
2023-02-15T08:11:30.192Z,35.40
2023-02-15T08:14:01.281Z,36.38
2023-02-15T08:16:31.865Z,33.83
2023-02-15T08:19:01.077Z,35.00
2023-02-15T08:21:30.381Z,35.63
2023-02-15T08:23:58.468Z,36.60
2023-02-15T08:26:27.662Z,36.40
2023-02-15T08:28:55.991Z,34.55
2023-02-15T08:31:25.596Z,36.50
2023-02-15T08:33:55.240Z,34.17
2023-02-15T08:36:24.856Z,36.95
2023-02-15T08:38:52.782Z,35.67
2023-02-15T08:41:22.393Z,37.08
2023-02-15T08:43:53.198Z,35.95
2023-02-15T08:46:21.609Z,36.45
2023-02-15T08:48:50.845Z,36.30
2023-02-15T08:51:20.937Z,36.47
2023-02-15T08:53:51.077Z,35.30
2023-02-15T08:56:20.435Z,36.28
2023-02-15T08:58:48.376Z,37.22
2023-02-15T09:01:19.248Z,34.90
2023-02-15T09:03:48.052Z,35.55
2023-02-15T09:06:17.845Z,34.53
2023-02-15T09:08:45.923Z,35.42
2023-02-15T09:11:17.697Z,36.03
2023-02-15T09:13:46.138Z,34.25
2023-02-15T09:16:13.903Z,34.78
2023-02-15T09:18:41.789Z,34.85
2023-02-15T09:21:10.754Z,33.40
2023-02-15T09:23:39.818Z,36.60
2023-02-15T09:26:09.851Z,36.60
2023-02-15T09:28:37.826Z,36.08
2023-02-15T09:31:10.769Z,35.80
2023-02-15T09:33:39.903Z,36.30
2023-02-15T09:36:15.384Z,36.13
2023-02-15T09:38:44.627Z,36.53
2023-02-15T09:41:40.124Z,36.00
2023-02-15T09:44:19.280Z,35.20
2023-02-15T09:47:03.818Z,34.63
2023-02-15T09:49:43.132Z,36.80
2023-02-15T09:52:41.430Z,36.13
2023-02-15T09:55:27.658Z,35.00
2023-02-15T09:58:04.356Z,33.55
2023-02-15T10:00:40.454Z,35.30
2023-02-15T10:03:41.998Z,33.05
2023-02-15T10:06:29.856Z,32.10
2023-02-15T10:09:08.922Z,33.35
2023-02-15T10:11:51.653Z,35.03
2023-02-15T10:14:43.267Z,34.40
2023-02-15T10:17:23.872Z,33.42
2023-02-15T10:20:06.572Z,33.63
2023-02-15T10:22:45.514Z,34.90
2023-02-15T10:25:33.105Z,33.55
2023-02-15T10:28:07.520Z,32.72
2023-02-15T10:30:46.778Z,34.08
2023-02-15T10:33:26.389Z,35.35
2023-02-15T10:36:04.284Z,33.28
2023-02-15T10:38:42.302Z,33.95
2023-02-15T10:41:24.289Z,34.53
2023-02-15T10:44:07.452Z,35.83
2023-02-15T10:46:50.379Z,33.22
2023-02-15T10:49:34.946Z,33.80
2023-02-15T10:52:19.622Z,36.47
2023-02-15T10:54:53.704Z,35.00
2023-02-15T10:57:32.775Z,35.35
2023-02-15T11:00:10.447Z,35.00
2023-02-15T11:02:52.498Z,34.83
2023-02-15T11:05:33.528Z,33.75
2023-02-15T11:08:05.980Z,33.67
2023-02-15T11:10:38.179Z,33.28
2023-02-15T11:13:11.321Z,33.10
2023-02-15T11:15:46.412Z,32.20
2023-02-15T11:18:21.265Z,31.27
2023-02-15T11:20:56.620Z,31.85
2023-02-15T11:23:27.020Z,32.17
2023-02-15T11:25:58.821Z,31.77
2023-02-15T11:28:33.298Z,31.58
2023-02-15T11:31:12.534Z,32.60
2023-02-15T11:33:45.372Z,32.83
2023-02-15T11:36:18.201Z,33.25
2023-02-15T11:38:49.226Z,32.45
2023-02-15T11:41:21.177Z,32.75
2023-02-15T11:44:00.523Z,32.00
2023-02-15T11:46:29.856Z,31.85
2023-02-15T11:48:59.334Z,32.92
2023-02-15T11:51:29.878Z,33.33
2023-02-15T11:53:58.538Z,32.30
2023-02-15T11:56:27.845Z,32.28
2023-02-15T11:58:59.281Z,33.22
2023-02-15T12:01:33.892Z,35.70
2023-02-15T12:04:06.200Z,32.72
2023-02-15T12:06:39.683Z,35.83
2023-02-15T12:09:23.488Z,33.65
2023-02-15T12:11:51.488Z,32.30
2023-02-15T12:14:19.253Z,30.58
2023-02-15T12:16:51.227Z,31.77
2023-02-15T12:19:40.944Z,32.22
2023-02-15T12:22:20.524Z,32.83
2023-02-15T12:24:50.031Z,30.92
2023-02-15T12:27:23.355Z,32.00
2023-02-15T12:29:53.331Z,32.90
2023-02-15T12:32:27.677Z,31.90
2023-02-15T12:35:02.298Z,31.63
2023-02-15T12:37:35.669Z,33.60
2023-02-15T12:40:20.686Z,32.20
2023-02-15T12:42:48.422Z,32.33
2023-02-15T12:45:26.244Z,31.42
2023-02-15T12:48:16.908Z,32.50
2023-02-15T12:50:45.693Z,31.05
2023-02-15T12:53:19.850Z,31.63
2023-02-15T12:55:56.657Z,32.35
2023-02-15T12:58:26.347Z,30.35
2023-02-15T13:01:11.904Z,30.73
2023-02-15T13:03:57.379Z,30.33
2023-02-15T13:06:25.352Z,29.02
2023-02-15T13:08:56.080Z,30.77
2023-02-15T13:11:30.296Z,31.00
2023-02-15T13:14:01.397Z,30.83
2023-02-15T13:16:33.832Z,29.48
2023-02-15T13:19:07.598Z,32.10
2023-02-15T13:21:40.713Z,29.88
2023-02-15T13:24:17.403Z,30.48
2023-02-15T13:26:48.173Z,29.60
2023-02-15T13:29:23.399Z,30.85
2023-02-15T13:31:52.256Z,30.13
2023-02-15T13:34:26.917Z,28.70
2023-02-15T13:37:03.234Z,28.70
2023-02-15T13:39:41.157Z,30.58
2023-02-15T13:42:22.399Z,29.58
2023-02-15T13:45:04.983Z,28.88
2023-02-15T13:47:45.410Z,29.23
2023-02-15T13:50:30.716Z,31.20
2023-02-15T13:53:04.600Z,30.05
2023-02-15T13:58:52.467Z,30.63
2023-02-15T14:01:28.569Z,30.38
2023-02-15T14:04:35.080Z,29.33
2023-02-15T14:07:22.129Z,32.17
2023-02-15T14:09:59.796Z,33.55
2023-02-15T14:12:40.898Z,30.77
2023-02-15T14:15:24.728Z,31.90
2023-02-15T14:18:02.914Z,30.17
2023-02-15T14:20:45.197Z,32.50
2023-02-15T14:23:30.543Z,30.27
2023-02-15T14:26:04.078Z,31.90
2023-02-15T14:28:39.823Z,30.25
2023-02-15T14:31:11.534Z,30.88
2023-02-15T14:33:41.282Z,30.98
2023-02-15T14:36:12.936Z,29.25
2023-02-15T14:39:00.915Z,30.38
2023-02-15T14:41:33.686Z,31.40
2023-02-15T14:44:08.326Z,33.75
2023-02-15T14:46:41.364Z,29.15
2023-02-15T14:49:14.280Z,30.67
2023-02-15T14:52:00.105Z,30.03
2023-02-15T14:55:01.478Z,29.25
2023-02-15T14:57:36.193Z,38.17
2023-02-15T15:00:37.704Z,30.23
2023-02-15T15:03:13.912Z,28.95
2023-02-15T15:05:51.817Z,28.13
2023-02-15T15:08:28.451Z,29.48
2023-02-15T15:10:57.716Z,29.08
2023-02-15T15:13:40.583Z,27.13
2023-02-15T15:16:31.623Z,29.08
2023-02-15T15:19:00.233Z,27.08
2023-02-15T15:22:03.868Z,29.95
2023-02-15T15:24:52.019Z,30.52
2023-02-15T15:27:46.013Z,30.92
2023-02-15T15:30:51.052Z,28.90
2023-02-15T15:33:39.438Z,29.92
2023-02-15T15:36:31.650Z,30.60
2023-02-15T15:39:12.059Z,32.00
2023-02-15T15:41:44.004Z,31.42
2023-02-15T15:44:58.009Z,29.38
2023-02-15T15:47:44.691Z,31.55
2023-02-15T15:50:15.257Z,36.33
2023-02-15T15:52:48.714Z,32.47
2023-02-15T15:55:19.075Z,31.10
2023-02-15T15:57:50.606Z,31.20
2023-02-15T16:00:40.866Z,32.78
2023-02-15T16:03:17.097Z,31.35
2023-02-15T16:05:44.938Z,32.05
2023-02-15T16:08:12.681Z,30.08
2023-02-15T16:10:40.592Z,32.28
2023-02-15T16:13:09.050Z,30.13
2023-02-15T16:15:46.471Z,41.70
2023-02-15T16:18:17.924Z,34.60
2023-02-15T16:20:53.944Z,32.53
2023-02-15T16:23:58.546Z,33.28
2023-02-15T16:26:47.600Z,34.20
2023-02-15T16:29:17.459Z,36.88
2023-02-15T16:32:00.782Z,35.42
2023-02-15T16:34:33.333Z,34.25
2023-02-15T16:37:22.860Z,32.63
2023-02-15T16:39:51.164Z,32.05
2023-02-15T16:42:19.980Z,33.20
2023-02-15T16:44:50.023Z,33.78
2023-02-15T16:47:24.193Z,35.20
2023-02-15T16:49:54.863Z,34.47
2023-02-15T16:52:25.153Z,32.08
2023-02-15T16:54:57.393Z,32.85
2023-02-15T16:57:29.733Z,31.92
2023-02-15T17:00:02.300Z,31.70
2023-02-15T17:02:55.656Z,30.27
2023-02-15T17:05:22.604Z,30.90
2023-02-15T17:08:07.985Z,32.88
2023-02-15T17:10:38.337Z,30.25
2023-02-15T17:13:11.716Z,30.65
2023-02-15T17:15:41.305Z,31.77
2023-02-15T17:18:18.743Z,32.25
2023-02-15T17:20:47.613Z,36.75
2023-02-15T17:23:24.284Z,34.20
2023-02-15T17:25:52.814Z,29.70
2023-02-15T17:28:22.736Z,29.00
2023-02-15T17:30:53.498Z,28.95
2023-02-15T17:33:29.872Z,30.73
2023-02-15T17:36:09.829Z,29.42
2023-02-15T17:38:38.410Z,28.77
2023-02-15T17:41:06.314Z,30.25
2023-02-15T17:43:34.123Z,29.55
2023-02-15T17:46:01.995Z,45.75
2023-02-15T17:48:35.285Z,40.38
2023-02-15T17:51:05.282Z,32.00
2023-02-15T17:53:33.701Z,32.60
2023-02-15T17:56:00.436Z,30.73
2023-02-15T17:58:28.193Z,31.00
2023-02-15T18:01:16.402Z,30.55
2023-02-15T18:04:05.867Z,34.92
2023-02-15T18:06:52.131Z,35.20
2023-02-15T18:09:39.217Z,30.98
2023-02-15T18:12:20.447Z,31.20
2023-02-15T18:14:48.314Z,31.45
2023-02-15T18:17:17.489Z,30.52
2023-02-15T18:19:48.073Z,31.30
2023-02-15T18:22:19.777Z,34.17
2023-02-15T18:24:48.181Z,30.75
2023-02-15T18:27:17.229Z,29.23
2023-02-15T18:29:45.013Z,31.30
2023-02-15T18:32:19.582Z,30.55
2023-02-15T18:34:49.874Z,30.08
2023-02-15T18:37:20.737Z,30.23
2023-02-15T18:39:50.235Z,31.40
2023-02-15T18:42:22.440Z,29.70
2023-02-15T18:44:51.881Z,30.30
2023-02-15T18:47:22.542Z,32.58
2023-02-15T18:49:51.734Z,30.58
2023-02-15T18:52:22.526Z,32.35
2023-02-15T18:54:59.847Z,34.83
2023-02-15T18:57:29.295Z,32.03
2023-02-15T18:59:57.189Z,32.88
2023-02-15T19:02:25.178Z,32.00
2023-02-15T19:04:54.416Z,43.38
2023-02-15T19:07:26.182Z,34.25
2023-02-15T19:10:00.757Z,32.88
2023-02-15T19:12:29.038Z,32.03
2023-02-15T19:14:57.068Z,31.80
2023-02-15T19:17:25.577Z,44.95
2023-02-15T19:19:54.933Z,35.30
2023-02-15T19:22:27.252Z,35.10
2023-02-15T19:24:59.073Z,32.80
2023-02-15T19:27:30.075Z,31.63
2023-02-15T19:29:59.767Z,33.70
2023-02-15T19:32:28.457Z,32.78
2023-02-15T19:34:57.685Z,32.28
2023-02-15T19:37:31.397Z,32.78
2023-02-15T19:39:59.343Z,36.63
2023-02-15T19:42:27.638Z,32.05
2023-02-15T19:44:55.913Z,39.25
2023-02-15T19:47:23.711Z,36.42
2023-02-15T19:49:51.765Z,33.53
2023-02-15T19:52:24.239Z,32.83
2023-02-15T19:54:54.293Z,30.65
2023-02-15T19:57:22.561Z,32.50
2023-02-15T19:59:50.454Z,31.10
2023-02-15T20:02:20.220Z,30.52
2023-02-15T20:04:48.166Z,32.13
2023-02-15T20:07:26.071Z,31.05
2023-02-15T20:09:54.124Z,31.73
2023-02-15T20:12:28.632Z,39.30
2023-02-15T20:14:58.435Z,31.38
2023-02-15T20:17:26.338Z,30.58
2023-02-15T20:19:55.080Z,32.92
2023-02-15T20:22:26.195Z,34.53
2023-02-15T20:24:56.286Z,31.17
2023-02-15T20:27:25.051Z,30.77
2023-02-15T20:29:56.701Z,30.10
2023-02-15T20:32:25.122Z,32.17
2023-02-15T20:34:52.938Z,30.05
2023-02-15T20:37:28.910Z,30.65
2023-02-15T20:39:57.046Z,31.65
2023-02-15T20:42:25.027Z,29.35
2023-02-15T20:44:52.826Z,31.40
2023-02-15T20:47:20.691Z,29.25
2023-02-15T20:49:48.519Z,29.30
2023-02-15T20:52:20.589Z,31.05
2023-02-15T20:54:49.881Z,35.58
2023-02-15T20:57:17.697Z,31.75
2023-02-15T20:59:46.011Z,28.77
2023-02-15T21:02:18.930Z,28.85
2023-02-15T21:04:47.143Z,28.17
2023-02-15T21:07:17.023Z,28.63
2023-02-15T21:09:44.973Z,28.80
2023-02-15T21:12:15.621Z,28.08
2023-02-15T21:14:43.911Z,28.85
2023-02-15T21:17:13.003Z,29.15
2023-02-15T21:19:41.521Z,28.70
2023-02-15T21:22:13.108Z,29.10
2023-02-15T21:24:45.740Z,28.52
2023-02-15T21:27:15.120Z,29.23
2023-02-15T21:29:42.917Z,30.23
2023-02-15T21:32:11.315Z,29.95
2023-02-15T21:34:39.928Z,28.10
2023-02-15T21:37:27.454Z,29.15
2023-02-15T21:39:55.302Z,29.77
2023-02-15T21:42:41.875Z,30.25
2023-02-15T21:45:32.849Z,29.05
2023-02-15T21:48:00.763Z,31.02
2023-02-15T21:50:46.431Z,30.58
2023-02-15T21:53:21.772Z,31.65
2023-02-15T21:55:50.191Z,31.45
2023-02-15T21:58:23.002Z,30.85
2023-02-15T22:00:50.897Z,30.58
2023-02-15T22:03:18.717Z,30.90
2023-02-15T22:05:46.437Z,30.33
2023-02-15T22:08:14.613Z,31.63
2023-02-15T22:10:42.989Z,31.63
2023-02-15T22:13:14.990Z,32.20
2023-02-15T22:15:46.797Z,32.75
2023-02-15T22:18:24.206Z,31.75
2023-02-15T22:20:52.643Z,32.45
2023-02-15T22:23:20.862Z,32.63
2023-02-15T22:25:54.714Z,31.52
2023-02-15T22:30:53.397Z,34.38
2023-02-15T22:33:27.022Z,31.98
2023-02-15T22:35:54.862Z,34.47
2023-02-15T22:38:23.017Z,34.42
2023-02-15T22:40:52.562Z,33.90
2023-02-15T22:43:28.974Z,33.40
2023-02-15T22:46:03.027Z,34.38
2023-02-15T22:48:31.174Z,35.63
2023-02-15T22:50:58.961Z,33.30
2023-02-15T22:53:27.036Z,33.28
2023-02-15T22:55:56.358Z,34.25
2023-02-15T22:58:28.125Z,35.85
2023-02-15T23:00:56.007Z,33.95
2023-02-15T23:03:28.716Z,35.80
2023-02-15T23:05:56.507Z,34.00
2023-02-15T23:08:24.304Z,35.30
2023-02-15T23:10:55.732Z,34.70
2023-02-15T23:13:26.713Z,34.72
2023-02-15T23:15:57.958Z,37.15
2023-02-15T23:18:29.457Z,35.33
2023-02-15T23:20:58.868Z,36.97
2023-02-15T23:23:31.609Z,38.30
2023-02-15T23:25:59.619Z,37.85
2023-02-15T23:28:29.857Z,39.67
2023-02-15T23:30:59.679Z,45.28
2023-02-15T23:33:32.296Z,45.95
2023-02-15T23:36:00.391Z,45.60
2023-02-15T23:38:30.286Z,45.08
2023-02-15T23:41:18.169Z,41.22
2023-02-15T23:43:48.951Z,40.08
2023-02-15T23:46:29.246Z,40.38
2023-02-15T23:48:58.638Z,36.92
2023-02-15T23:51:30.923Z,37.38
2023-02-15T23:53:59.098Z,38.25
2023-02-15T23:56:26.846Z,39.30
2023-02-15T23:58:54.722Z,36.80
